Cpo Italy — 2AJP9 — position and weather

sailwx.info

Track history (hours):
 
Tides and Currents Weather Stations Pressure Air Temp Water Temp Dewpoint Dewpoint Depression Visibility Wind Speed Wind Dir Waves Ship Positions

Cpo Italy

Last reported at 2018-Jun-25 03:58 UTC. Time now 2018-Jun-25 04:15 UTC.
Position N 49°25' W 004°24'.

Length 184 m; draft 10.9 m.

Type: Ship. MMSI: 235060251.

Date/timePositionNaut miles runAvg speedWind from/ knotsBaromVisibWave heightAir tempDewpointWater temp
2018-Jun-25 03:58N 49°25' W 004°24'1012.6
2018-Jun-25 03:10N 49°30' W 004°11'612.5
2018-Jun-25 02:41N 49°33' W 004°03'212.6
2018-Jun-25 02:30N 49°35' W 004°00'612.7
2018-Jun-25 02:00N 49°38' W 003°52'713.2
2018-Jun-25 01:31N 49°41' W 003°43'713.6
2018-Jun-25 01:00N 49°44' W 003°34'714.1
2018-Jun-25 00:30N 49°48' W 003°24'714.7
2018-Jun-25 00:00N 49°51' W 003°14'715.1
2018-Jun-24 23:31N 49°55' W 003°04'815.2
2018-Jun-24 23:01N 49°59' W 002°54'815.4
2018-Jun-24 22:30N 50°01' W 002°42'815.3
2018-Jun-24 22:01N 50°03' W 002°31'814.9
2018-Jun-24 21:28N 50°05' W 002°19'714.4
2018-Jun-24 21:01N 50°07' W 002°09'713.8
2018-Jun-24 20:30N 50°10' W 001°59'613.1
2018-Jun-24 20:00N 50°12' W 001°50'812.2
2018-Jun-24 19:24N 50°14' W 001°38'711.6
2018-Jun-24 18:50N 50°16' W 001°28'411.3
2018-Jun-24 18:30N 50°17' W 001°23'611.1
2018-Jun-24 17:58N 50°18' W 001°13'710.7
2018-Jun-24 17:17N 50°19' W 001°02'311.0
2018-Jun-24 17:00N 50°20' W 000°58'611.6
2018-Jun-24 16:31N 50°21' W 000°49'612.1
2018-Jun-24 16:01N 50°23' W 000°40'612.5
2018-Jun-24 15:30N 50°25' W 000°30'713.3
2018-Jun-24 15:00N 50°27' W 000°20'713.9
2018-Jun-24 14:31N 50°29' W 000°10'714.2
2018-Jun-24 14:00N 50°31' E 000°01'714.5
2018-Jun-24 13:30N 50°33' E 000°12'714.8
2018-Jun-24 13:01N 50°35' E 000°23'714.8
2018-Jun-24 12:30N 50°37' E 000°34'714.3
2018-Jun-24 12:00N 50°41' E 000°43'713.9
2018-Jun-24 11:31N 50°45' E 000°52'713.3
2018-Jun-24 10:57N 50°50' E 001°01'712.7
2018-Jun-24 10:23N 50°55' E 001°09'512.1
2018-Jun-24 10:00N 50°58' E 001°15'611.6
2018-Jun-24 09:30N 51°02' E 001°22'611.4
2018-Jun-24 09:00N 51°05' E 001°29'612.1
2018-Jun-24 08:31N 51°09' E 001°36'612.3
2018-Jun-24 08:01N 51°13' E 001°44'712.9
2018-Jun-24 07:30N 51°19' E 001°49'713.9
2018-Jun-24 07:01N 51°25' E 001°54'714.5
2018-Jun-24 06:30N 51°31' E 002°01'814.9
2018-Jun-24 06:00N 51°36' E 002°09'815.3
2018-Jun-24 05:31N 51°42' E 002°17'815.1
2018-Jun-24 05:00N 51°48' E 002°25'714.9
2018-Jun-24 04:30N 51°53' E 002°33'713.9
2018-Jun-24 04:00N 52°00' E 002°37'714.0
2018-Jun-24 03:30N 52°07' E 002°37'713.8
2018-Jun-24 03:00N 52°14' E 002°38'713.3
2018-Jun-24 02:30N 52°20' E 002°37'612.8
2018-Jun-24 02:00N 52°27' E 002°37'612.5
2018-Jun-24 01:30N 52°33' E 002°37'612.3
2018-Jun-24 01:00N 52°39' E 002°38'612.1
2018-Jun-24 00:28N 52°46' E 002°38'612.1
2018-Jun-24 00:00N 52°51' E 002°38'611.9
2018-Jun-23 23:30N 52°57' E 002°39'1712.0
2018-Jun-23 22:04N 53°14' E 002°43'112.7
2018-Jun-23 21:57N 53°16' E 002°44'38412.2
2018-Jun-22 14:22N 57°50' E 010°40'511.6
2018-Jun-22 13:55N 57°47' E 010°48'712.0
2018-Jun-22 13:22N 57°43' E 010°57'411.1
2018-Jun-22 13:00N 57°40' E 011°02'612.4
2018-Jun-22 12:30N 57°36' E 011°11'713.0
2018-Jun-22 12:00N 57°31' E 011°19'612.5
2018-Jun-22 11:30N 57°26' E 011°27'612.6
2018-Jun-22 11:00N 57°21' E 011°31'12911.3
2018-Jun-21 23:39N 55°13' E 011°06'211.1
2018-Jun-21 23:30N 55°11' E 011°05'611.4
2018-Jun-21 22:58N 55°06' E 010°59'511.4
2018-Jun-21 22:30N 55°01' E 010°59'510.3
2018-Jun-21 22:00N 54°57' E 010°54'510.1
2018-Jun-21 21:30N 54°52' E 010°50'510.1
2018-Jun-21 21:00N 54°47' E 010°49'511.0
2018-Jun-21 20:30N 54°42' E 010°47'511.0
2018-Jun-21 20:00N 54°38' E 010°54'611.3
2018-Jun-21 19:30N 54°36' E 011°03'611.1
2018-Jun-21 19:00N 54°35' E 011°13'611.5
2018-Jun-21 18:30N 54°33' E 011°22'612.0
2018-Jun-21 18:00N 54°30' E 011°31'611.7
2018-Jun-21 17:30N 54°28' E 011°40'712.1
2018-Jun-21 16:58N 54°26' E 011°51'612.2
2018-Jun-21 16:30N 54°26' E 012°01'612.0
2018-Jun-21 16:00N 54°27' E 012°11'7812.8
2018-Jun-21 09:55N 55°06' E 014°08'614.2
2018-Jun-21 09:28N 55°11' E 014°14'714.1
2018-Jun-21 08:58N 55°17' E 014°22'714.0
2018-Jun-21 08:30N 55°22' E 014°29'713.5
2018-Jun-21 07:58N 55°27' E 014°38'613.5
2018-Jun-21 07:30N 55°30' E 014°47'31513.1
2018-Jun-20 07:26N 59°12' E 021°42'614.0
2018-Jun-20 07:00N 59°15' E 021°51'2113.9
2018-Jun-20 05:29N 59°28' E 022°24'2713.3
2018-Jun-20 03:29N 59°37' E 023°14'613.3
2018-Jun-20 03:00N 59°39' E 023°26'713.3
2018-Jun-20 02:30N 59°41' E 023°38'713.1
2018-Jun-20 02:00N 59°43' E 023°50'713.1
2018-Jun-20 01:30N 59°45' E 024°03'713.1
2018-Jun-20 00:59N 59°46' E 024°16'813.3
2018-Jun-20 00:25N 59°48' E 024°31'513.3
2018-Jun-20 00:00N 59°49' E 024°42'713.4
2018-Jun-19 23:30N 59°50' E 024°55'713.4
2018-Jun-19 23:00N 59°52' E 025°08'713.4
2018-Jun-19 22:30N 59°53' E 025°21'713.3
2018-Jun-19 22:00N 59°54' E 025°34'713.3
2018-Jun-19 21:30N 59°55' E 025°47'713.4
2018-Jun-19 21:00N 59°57' E 025°60'713.4
2018-Jun-19 20:30N 59°59' E 026°13'712.8
2018-Jun-19 19:59N 60°00' E 026°26'613.4
2018-Jun-19 19:31N 60°01' E 026°38'714.0
2018-Jun-19 18:59N 60°00' E 026°53'611.2
2018-Jun-19 18:28N 59°60' E 027°05'511.5
2018-Jun-19 17:59N 60°03' E 027°14'511.1
2018-Jun-19 17:30N 60°06' E 027°22'611.3
2018-Jun-19 17:00N 60°09' E 027°32'5 9.8
2018-Jun-19 16:30N 60°11' E 027°41'611.1
2018-Jun-19 15:59N 60°15' E 027°50'510.3
2018-Jun-19 15:30N 60°19' E 027°56'611.8
2018-Jun-19 14:59N 60°24' E 028°03'4 7.7
2018-Jun-19 14:30N 60°25' E 028°10'5 9.4
2018-Jun-19 14:00N 60°27' E 028°18'1 0.0
2018-Jun-17 21:51N 60°28' E 028°21'413.2
2018-Jun-17 21:30N 60°26' E 028°13'5 9.1
2018-Jun-17 20:56N 60°23' E 028°04'4 7.9
2018-Jun-17 20:29N 60°20' E 028°02'0 0.3
2018-Jun-17 19:58N 60°20' E 028°02'0 0.0
2018-Jun-17 19:26N 60°20' E 028°02'0 0.0
2018-Jun-17 18:53N 60°20' E 028°02'0 0.0
2018-Jun-17 18:26N 60°20' E 028°02'0 0.0
2018-Jun-17 17:53N 60°20' E 028°02'0 0.0
2018-Jun-17 17:20N 60°20' E 028°02'0 0.5
2018-Jun-17 16:58N 60°20' E 028°02'2 3.1
2018-Jun-17 16:26N 60°19' E 027°59'612.7
2018-Jun-17 16:00N 60°15' E 027°52'713.4
2018-Jun-17 15:30N 60°10' E 027°43'612.0
2018-Jun-17 15:00N 60°07' E 027°32'612.1
2018-Jun-17 14:30N 60°04' E 027°22'712.2
2018-Jun-17 13:58N 60°00' E 027°11'511.8
2018-Jun-17 13:30N 59°58' E 027°01'612.4
2018-Jun-17 13:00N 59°59' E 026°49'612.3
2018-Jun-17 12:30N 59°59' E 026°37'612.6
2018-Jun-17 12:00N 59°57' E 026°24'712.2
2018-Jun-17 11:28N 59°56' E 026°12'612.0
2018-Jun-17 10:59N 59°54' E 026°01'612.1
2018-Jun-17 10:30N 59°52' E 025°50'612.1
2018-Jun-17 10:00N 59°51' E 025°38'612.1
2018-Jun-17 09:30N 59°50' E 025°26'612.8
2018-Jun-17 09:01N 59°48' E 025°14'713.5
2018-Jun-17 08:31N 59°47' E 025°01'612.1
2018-Jun-17 08:00N 59°46' E 024°49'612.2
2018-Jun-17 07:30N 59°45' E 024°37'611.4
2018-Jun-17 07:00N 59°41' E 024°28'612.4
2018-Jun-17 06:30N 59°35' E 024°23'611.5
2018-Jun-17 06:00N 59°31' E 024°30'2 3.5
2018-Jun-17 05:28N 59°29' E 024°32'0 0.0
2018-Jun-17 04:58N 59°29' E 024°32'0 0.0
2018-Jun-17 04:28N 59°29' E 024°32'0 0.0
2018-Jun-17 04:00N 59°29' E 024°32'0 0.0
2018-Jun-17 03:28N 59°29' E 024°32'0 0.0
2018-Jun-17 02:58N 59°29' E 024°32'0 0.0
2018-Jun-17 02:28N 59°29' E 024°32'0 0.0
2018-Jun-17 01:58N 59°29' E 024°32'0 0.0
2018-Jun-17 01:28N 59°29' E 024°32'0 0.1
2018-Jun-17 01:00N 59°29' E 024°32'3 5.1
2018-Jun-17 00:29N 59°30' E 024°27'612.6
2018-Jun-16 23:58N 59°30' E 024°14'612.1
2018-Jun-16 23:28N 59°30' E 024°02'612.2
2018-Jun-16 23:00N 59°30' E 023°51'612.3
2018-Jun-16 22:29N 59°30' E 023°38'612.2
2018-Jun-16 22:00N 59°29' E 023°26'612.3
2018-Jun-16 21:30N 59°29' E 023°14'612.3
2018-Jun-16 21:00N 59°28' E 023°02'612.5
2018-Jun-16 20:30N 59°26' E 022°51'612.3
2018-Jun-16 20:00N 59°24' E 022°39'612.3
2018-Jun-16 19:29N 59°21' E 022°29'612.2
2018-Jun-16 19:00N 59°17' E 022°19'612.3
2018-Jun-16 18:29N 59°14' E 022°09'612.3
2018-Jun-16 18:00N 59°10' E 021°60'612.1
2018-Jun-16 17:30N 59°07' E 021°50'611.9
2018-Jun-16 17:00N 59°02' E 021°43'612.0
2018-Jun-16 16:30N 58°57' E 021°36'612.1
2018-Jun-16 16:00N 58°52' E 021°29'612.1
2018-Jun-16 15:30N 58°47' E 021°23'612.1
2018-Jun-16 15:00N 58°42' E 021°17'612.0
2018-Jun-16 14:30N 58°37' E 021°10'612.1
2018-Jun-16 14:00N 58°32' E 021°04'612.2
2018-Jun-16 13:30N 58°27' E 020°58'612.3
2018-Jun-16 13:00N 58°22' E 020°51'3612.5
2018-Jun-16 10:09N 57°52' E 020°14'512.3
2018-Jun-16 09:43N 57°48' E 020°08'312.5
2018-Jun-16 09:30N 57°46' E 020°05'612.6
2018-Jun-16 09:00N 57°41' E 019°57'19412.3
2018-Jun-15 17:17N 55°38' E 015°25'412.7
2018-Jun-15 17:00N 55°36' E 015°20'912.7
2018-Jun-15 16:20N 55°32' E 015°07'513.0
2018-Jun-15 15:59N 55°30' E 014°59'612.9
2018-Jun-15 15:30N 55°28' E 014°50'712.8
2018-Jun-15 15:00N 55°24' E 014°40'612.7
2018-Jun-15 14:30N 55°19' E 014°33'612.6
2018-Jun-15 14:00N 55°14' E 014°26'612.4
2018-Jun-15 13:31N 55°10' E 014°19'712.2
2018-Jun-15 12:58N 55°09' E 014°08'712.4
2018-Jun-15 12:26N 55°10' E 013°56'2512.4
2018-Jun-15 10:26N 55°12' E 013°13'1812.8
2018-Jun-15 09:00N 55°17' E 012°42'510.7
2018-Jun-15 08:30N 55°22' E 012°39'913.0
2018-Jun-15 07:51N 55°30' E 012°42'411.2
2018-Jun-15 07:30N 55°34' E 012°42'713.2
2018-Jun-15 07:00N 55°41' E 012°41'714.4
2018-Jun-15 06:30N 55°48' E 012°43'714.2
2018-Jun-15 06:00N 55°55' E 012°39'714.3
2018-Jun-15 05:30N 56°02' E 012°38'612.5
2018-Jun-15 05:00N 56°07' E 012°31'612.0
2018-Jun-15 04:30N 56°10' E 012°23'  
Track history (hours):
 
Tides and Currents Weather Stations Pressure Air Temp Water Temp Dewpoint Dewpoint Depression Visibility Wind Speed Wind Dir Waves Ship Positions

Cpo Italy

Last reported at 2018-Jun-25 03:58 UTC. Time now 2018-Jun-25 04:15 UTC.
Position N 49°25' W 004°24'.

Length 184 m; draft 10.9 m.

Type: Ship. MMSI: 235060251.

Date/timePositionNaut miles runAvg speedWind from/ knotsBaromVisibWave heightAir tempDewpointWater temp
2018-Jun-25 03:58N 49°25' W 004°24'1012.6
2018-Jun-25 03:10N 49°30' W 004°11'612.5
2018-Jun-25 02:41N 49°33' W 004°03'212.6
2018-Jun-25 02:30N 49°35' W 004°00'612.7
2018-Jun-25 02:00N 49°38' W 003°52'713.2
2018-Jun-25 01:31N 49°41' W 003°43'713.6
2018-Jun-25 01:00N 49°44' W 003°34'714.1
2018-Jun-25 00:30N 49°48' W 003°24'714.7
2018-Jun-25 00:00N 49°51' W 003°14'715.1
2018-Jun-24 23:31N 49°55' W 003°04'815.2
2018-Jun-24 23:01N 49°59' W 002°54'815.4
2018-Jun-24 22:30N 50°01' W 002°42'815.3
2018-Jun-24 22:01N 50°03' W 002°31'814.9
2018-Jun-24 21:28N 50°05' W 002°19'714.4
2018-Jun-24 21:01N 50°07' W 002°09'713.8
2018-Jun-24 20:30N 50°10' W 001°59'613.1
2018-Jun-24 20:00N 50°12' W 001°50'812.2
2018-Jun-24 19:24N 50°14' W 001°38'711.6
2018-Jun-24 18:50N 50°16' W 001°28'411.3
2018-Jun-24 18:30N 50°17' W 001°23'611.1
2018-Jun-24 17:58N 50°18' W 001°13'710.7
2018-Jun-24 17:17N 50°19' W 001°02'311.0
2018-Jun-24 17:00N 50°20' W 000°58'611.6
2018-Jun-24 16:31N 50°21' W 000°49'612.1
2018-Jun-24 16:01N 50°23' W 000°40'612.5
2018-Jun-24 15:30N 50°25' W 000°30'713.3
2018-Jun-24 15:00N 50°27' W 000°20'713.9
2018-Jun-24 14:31N 50°29' W 000°10'714.2
2018-Jun-24 14:00N 50°31' E 000°01'714.5
2018-Jun-24 13:30N 50°33' E 000°12'714.8
2018-Jun-24 13:01N 50°35' E 000°23'714.8
2018-Jun-24 12:30N 50°37' E 000°34'714.3
2018-Jun-24 12:00N 50°41' E 000°43'713.9
2018-Jun-24 11:31N 50°45' E 000°52'713.3
2018-Jun-24 10:57N 50°50' E 001°01'712.7
2018-Jun-24 10:23N 50°55' E 001°09'512.1
2018-Jun-24 10:00N 50°58' E 001°15'611.6
2018-Jun-24 09:30N 51°02' E 001°22'611.4
2018-Jun-24 09:00N 51°05' E 001°29'612.1
2018-Jun-24 08:31N 51°09' E 001°36'612.3
2018-Jun-24 08:01N 51°13' E 001°44'712.9
2018-Jun-24 07:30N 51°19' E 001°49'713.9
2018-Jun-24 07:01N 51°25' E 001°54'714.5
2018-Jun-24 06:30N 51°31' E 002°01'814.9
2018-Jun-24 06:00N 51°36' E 002°09'815.3
2018-Jun-24 05:31N 51°42' E 002°17'815.1
2018-Jun-24 05:00N 51°48' E 002°25'714.9
2018-Jun-24 04:30N 51°53' E 002°33'713.9
2018-Jun-24 04:00N 52°00' E 002°37'714.0
2018-Jun-24 03:30N 52°07' E 002°37'713.8
2018-Jun-24 03:00N 52°14' E 002°38'713.3
2018-Jun-24 02:30N 52°20' E 002°37'612.8
2018-Jun-24 02:00N 52°27' E 002°37'612.5
2018-Jun-24 01:30N 52°33' E 002°37'612.3
2018-Jun-24 01:00N 52°39' E 002°38'612.1
2018-Jun-24 00:28N 52°46' E 002°38'612.1
2018-Jun-24 00:00N 52°51' E 002°38'611.9
2018-Jun-23 23:30N 52°57' E 002°39'1712.0
2018-Jun-23 22:04N 53°14' E 002°43'112.7
2018-Jun-23 21:57N 53°16' E 002°44'38412.2
2018-Jun-22 14:22N 57°50' E 010°40'511.6
2018-Jun-22 13:55N 57°47' E 010°48'712.0
2018-Jun-22 13:22N 57°43' E 010°57'411.1
2018-Jun-22 13:00N 57°40' E 011°02'612.4
2018-Jun-22 12:30N 57°36' E 011°11'713.0
2018-Jun-22 12:00N 57°31' E 011°19'612.5
2018-Jun-22 11:30N 57°26' E 011°27'612.6
2018-Jun-22 11:00N 57°21' E 011°31'12911.3
2018-Jun-21 23:39N 55°13' E 011°06'211.1
2018-Jun-21 23:30N 55°11' E 011°05'611.4
2018-Jun-21 22:58N 55°06' E 010°59'511.4
2018-Jun-21 22:30N 55°01' E 010°59'510.3
2018-Jun-21 22:00N 54°57' E 010°54'510.1
2018-Jun-21 21:30N 54°52' E 010°50'510.1
2018-Jun-21 21:00N 54°47' E 010°49'511.0
2018-Jun-21 20:30N 54°42' E 010°47'511.0
2018-Jun-21 20:00N 54°38' E 010°54'611.3
2018-Jun-21 19:30N 54°36' E 011°03'611.1
2018-Jun-21 19:00N 54°35' E 011°13'611.5
2018-Jun-21 18:30N 54°33' E 011°22'612.0
2018-Jun-21 18:00N 54°30' E 011°31'611.7
2018-Jun-21 17:30N 54°28' E 011°40'712.1
2018-Jun-21 16:58N 54°26' E 011°51'612.2
2018-Jun-21 16:30N 54°26' E 012°01'612.0
2018-Jun-21 16:00N 54°27' E 012°11'7812.8
2018-Jun-21 09:55N 55°06' E 014°08'614.2
2018-Jun-21 09:28N 55°11' E 014°14'714.1
2018-Jun-21 08:58N 55°17' E 014°22'714.0
2018-Jun-21 08:30N 55°22' E 014°29'713.5
2018-Jun-21 07:58N 55°27' E 014°38'613.5
2018-Jun-21 07:30N 55°30' E 014°47'31513.1
2018-Jun-20 07:26N 59°12' E 021°42'614.0
2018-Jun-20 07:00N 59°15' E 021°51'2113.9
2018-Jun-20 05:29N 59°28' E 022°24'2713.3
2018-Jun-20 03:29N 59°37' E 023°14'613.3
2018-Jun-20 03:00N 59°39' E 023°26'713.3
2018-Jun-20 02:30N 59°41' E 023°38'713.1
2018-Jun-20 02:00N 59°43' E 023°50'713.1
2018-Jun-20 01:30N 59°45' E 024°03'713.1
2018-Jun-20 00:59N 59°46' E 024°16'813.3
2018-Jun-20 00:25N 59°48' E 024°31'513.3
2018-Jun-20 00:00N 59°49' E 024°42'713.4
2018-Jun-19 23:30N 59°50' E 024°55'713.4
2018-Jun-19 23:00N 59°52' E 025°08'713.4
2018-Jun-19 22:30N 59°53' E 025°21'713.3
2018-Jun-19 22:00N 59°54' E 025°34'713.3
2018-Jun-19 21:30N 59°55' E 025°47'713.4
2018-Jun-19 21:00N 59°57' E 025°60'713.4
2018-Jun-19 20:30N 59°59' E 026°13'712.8
2018-Jun-19 19:59N 60°00' E 026°26'613.4
2018-Jun-19 19:31N 60°01' E 026°38'714.0
2018-Jun-19 18:59N 60°00' E 026°53'611.2
2018-Jun-19 18:28N 59°60' E 027°05'511.5
2018-Jun-19 17:59N 60°03' E 027°14'511.1
2018-Jun-19 17:30N 60°06' E 027°22'611.3
2018-Jun-19 17:00N 60°09' E 027°32'5 9.8
2018-Jun-19 16:30N 60°11' E 027°41'611.1
2018-Jun-19 15:59N 60°15' E 027°50'510.3
2018-Jun-19 15:30N 60°19' E 027°56'611.8
2018-Jun-19 14:59N 60°24' E 028°03'4 7.7
2018-Jun-19 14:30N 60°25' E 028°10'5 9.4
2018-Jun-19 14:00N 60°27' E 028°18'1 0.0
2018-Jun-17 21:51N 60°28' E 028°21'413.2
2018-Jun-17 21:30N 60°26' E 028°13'5 9.1
2018-Jun-17 20:56N 60°23' E 028°04'4 7.9
2018-Jun-17 20:29N 60°20' E 028°02'0 0.3
2018-Jun-17 19:58N 60°20' E 028°02'0 0.0
2018-Jun-17 19:26N 60°20' E 028°02'0 0.0
2018-Jun-17 18:53N 60°20' E 028°02'0 0.0
2018-Jun-17 18:26N 60°20' E 028°02'0 0.0
2018-Jun-17 17:53N 60°20' E 028°02'0 0.0
2018-Jun-17 17:20N 60°20' E 028°02'0 0.5
2018-Jun-17 16:58N 60°20' E 028°02'2 3.1
2018-Jun-17 16:26N 60°19' E 027°59'612.7
2018-Jun-17 16:00N 60°15' E 027°52'713.4
2018-Jun-17 15:30N 60°10' E 027°43'612.0
2018-Jun-17 15:00N 60°07' E 027°32'612.1
2018-Jun-17 14:30N 60°04' E 027°22'712.2
2018-Jun-17 13:58N 60°00' E 027°11'511.8
2018-Jun-17 13:30N 59°58' E 027°01'612.4
2018-Jun-17 13:00N 59°59' E 026°49'612.3
2018-Jun-17 12:30N 59°59' E 026°37'612.6
2018-Jun-17 12:00N 59°57' E 026°24'712.2
2018-Jun-17 11:28N 59°56' E 026°12'612.0
2018-Jun-17 10:59N 59°54' E 026°01'612.1
2018-Jun-17 10:30N 59°52' E 025°50'612.1
2018-Jun-17 10:00N 59°51' E 025°38'612.1
2018-Jun-17 09:30N 59°50' E 025°26'612.8
2018-Jun-17 09:01N 59°48' E 025°14'713.5
2018-Jun-17 08:31N 59°47' E 025°01'612.1
2018-Jun-17 08:00N 59°46' E 024°49'612.2
2018-Jun-17 07:30N 59°45' E 024°37'611.4
2018-Jun-17 07:00N 59°41' E 024°28'612.4
2018-Jun-17 06:30N 59°35' E 024°23'611.5
2018-Jun-17 06:00N 59°31' E 024°30'2 3.5
2018-Jun-17 05:28N 59°29' E 024°32'0 0.0
2018-Jun-17 04:58N 59°29' E 024°32'0 0.0
2018-Jun-17 04:28N 59°29' E 024°32'0 0.0
2018-Jun-17 04:00N 59°29' E 024°32'0 0.0
2018-Jun-17 03:28N 59°29' E 024°32'0 0.0
2018-Jun-17 02:58N 59°29' E 024°32'0 0.0
2018-Jun-17 02:28N 59°29' E 024°32'0 0.0
2018-Jun-17 01:58N 59°29' E 024°32'0 0.0
2018-Jun-17 01:28N 59°29' E 024°32'0 0.1
2018-Jun-17 01:00N 59°29' E 024°32'3 5.1
2018-Jun-17 00:29N 59°30' E 024°27'612.6
2018-Jun-16 23:58N 59°30' E 024°14'612.1
2018-Jun-16 23:28N 59°30' E 024°02'612.2
2018-Jun-16 23:00N 59°30' E 023°51'612.3
2018-Jun-16 22:29N 59°30' E 023°38'612.2
2018-Jun-16 22:00N 59°29' E 023°26'612.3
2018-Jun-16 21:30N 59°29' E 023°14'612.3
2018-Jun-16 21:00N 59°28' E 023°02'612.5
2018-Jun-16 20:30N 59°26' E 022°51'612.3
2018-Jun-16 20:00N 59°24' E 022°39'612.3
2018-Jun-16 19:29N 59°21' E 022°29'612.2
2018-Jun-16 19:00N 59°17' E 022°19'612.3
2018-Jun-16 18:29N 59°14' E 022°09'612.3
2018-Jun-16 18:00N 59°10' E 021°60'612.1
2018-Jun-16 17:30N 59°07' E 021°50'611.9
2018-Jun-16 17:00N 59°02' E 021°43'612.0
2018-Jun-16 16:30N 58°57' E 021°36'612.1
2018-Jun-16 16:00N 58°52' E 021°29'612.1
2018-Jun-16 15:30N 58°47' E 021°23'612.1
2018-Jun-16 15:00N 58°42' E 021°17'612.0
2018-Jun-16 14:30N 58°37' E 021°10'612.1
2018-Jun-16 14:00N 58°32' E 021°04'612.2
2018-Jun-16 13:30N 58°27' E 020°58'612.3
2018-Jun-16 13:00N 58°22' E 020°51'3612.5
2018-Jun-16 10:09N 57°52' E 020°14'512.3
2018-Jun-16 09:43N 57°48' E 020°08'312.5
2018-Jun-16 09:30N 57°46' E 020°05'612.6
2018-Jun-16 09:00N 57°41' E 019°57'19412.3
2018-Jun-15 17:17N 55°38' E 015°25'412.7
2018-Jun-15 17:00N 55°36' E 015°20'912.7
2018-Jun-15 16:20N 55°32' E 015°07'513.0
2018-Jun-15 15:59N 55°30' E 014°59'612.9
2018-Jun-15 15:30N 55°28' E 014°50'712.8
2018-Jun-15 15:00N 55°24' E 014°40'612.7
2018-Jun-15 14:30N 55°19' E 014°33'612.6
2018-Jun-15 14:00N 55°14' E 014°26'612.4
2018-Jun-15 13:31N 55°10' E 014°19'712.2
2018-Jun-15 12:58N 55°09' E 014°08'712.4
2018-Jun-15 12:26N 55°10' E 013°56'2512.4
2018-Jun-15 10:26N 55°12' E 013°13'1812.8
2018-Jun-15 09:00N 55°17' E 012°42'510.7
2018-Jun-15 08:30N 55°22' E 012°39'913.0
2018-Jun-15 07:51N 55°30' E 012°42'411.2
2018-Jun-15 07:30N 55°34' E 012°42'713.2
2018-Jun-15 07:00N 55°41' E 012°41'714.4
2018-Jun-15 06:30N 55°48' E 012°43'714.2
2018-Jun-15 06:00N 55°55' E 012°39'714.3
2018-Jun-15 05:30N 56°02' E 012°38'612.5
2018-Jun-15 05:00N 56°07' E 012°31'612.0
2018-Jun-15 04:30N 56°10' E 012°23'  

Dump ship's entire track history